sensor_id;sensor_type;location;lat;lon;timestamp;pressure;altitude;pressure_sealevel;temperature;humidity
16580;BME280;8402;51.466;6.806;2022-11-23T00:01:16;99376.31;;;9.51;100.00
16580;BME280;8402;51.466;6.806;2022-11-23T00:03:46;99372.13;;;9.54;100.00
16580;BME280;8402;51.466;6.806;2022-11-23T00:06:15;99374.50;;;9.55;100.00
16580;BME280;8402;51.466;6.806;2022-11-23T00:08:44;99370.22;;;9.54;100.00
16580;BME280;8402;51.466;6.806;2022-11-23T00:11:12;99371.56;;;9.48;100.00
16580;BME280;8402;51.466;6.806;2022-11-23T00:13:44;99378.56;;;9.49;100.00
16580;BME280;8402;51.466;6.806;2022-11-23T00:16:13;99382.88;;;9.50;100.00
16580;BME280;8402;51.466;6.806;2022-11-23T00:18:43;99382.75;;;9.47;100.00
16580;BME280;8402;51.466;6.806;2022-11-23T00:21:14;99384.88;;;9.53;100.00
16580;BME280;8402;51.466;6.806;2022-11-23T00:23:43;99388.38;;;9.54;100.00
16580;BME280;8402;51.466;6.806;2022-11-23T00:26:11;99386.47;;;9.54;100.00
16580;BME280;8402;51.466;6.806;2022-11-23T00:28:40;99383.53;;;9.59;100.00
16580;BME280;8402;51.466;6.806;2022-11-23T00:31:12;99403.38;;;9.63;100.00
16580;BME280;8402;51.466;6.806;2022-11-23T00:33:40;99395.59;;;9.62;100.00
16580;BME280;8402;51.466;6.806;2022-11-23T00:36:12;99397.50;;;9.61;100.00
16580;BME280;8402;51.466;6.806;2022-11-23T00:38:42;99406.06;;;9.63;100.00
16580;BME280;8402;51.466;6.806;2022-11-23T00:41:12;99406.88;;;9.64;100.00
16580;BME280;8402;51.466;6.806;2022-11-23T00:43:41;99400.00;;;9.67;100.00
16580;BME280;8402;51.466;6.806;2022-11-23T00:46:15;99401.13;;;9.65;100.00
16580;BME280;8402;51.466;6.806;2022-11-23T00:48:44;99407.69;;;9.64;100.00
16580;BME280;8402;51.466;6.806;2022-11-23T00:51:14;99405.75;;;9.65;100.00
16580;BME280;8402;51.466;6.806;2022-11-23T00:53:42;99418.53;;;9.64;100.00
16580;BME280;8402;51.466;6.806;2022-11-23T00:56:11;99410.84;;;9.67;100.00
16580;BME280;8402;51.466;6.806;2022-11-23T00:58:39;99405.06;;;9.68;100.00
16580;BME280;8402;51.466;6.806;2022-11-23T01:01:08;99419.84;;;9.71;100.00
16580;BME280;8402;51.466;6.806;2022-11-23T01:03:43;99423.69;;;9.70;100.00
16580;BME280;8402;51.466;6.806;2022-11-23T01:06:13;99419.84;;;9.71;100.00
16580;BME280;8402;51.466;6.806;2022-11-23T01:08:46;99422.56;;;9.71;100.00
16580;BME280;8402;51.466;6.806;2022-11-23T01:11:14;99423.69;;;9.70;100.00
16580;BME280;8402;51.466;6.806;2022-11-23T01:13:42;99415.56;;;9.70;100.00
16580;BME280;8402;51.466;6.806;2022-11-23T01:16:14;99428.75;;;9.71;100.00
16580;BME280;8402;51.466;6.806;2022-11-23T01:18:52;99431.03;;;9.69;100.00
16580;BME280;8402;51.466;6.806;2022-11-23T01:21:20;99424.94;;;9.72;100.00
16580;BME280;8402;51.466;6.806;2022-11-23T01:23:49;99438.81;;;9.71;100.00
16580;BME280;8402;51.466;6.806;2022-11-23T01:26:19;99434.06;;;9.68;100.00
16580;BME280;8402;51.466;6.806;2022-11-23T01:28:47;99438.00;;;9.70;100.00
16580;BME280;8402;51.466;6.806;2022-11-23T01:31:18;99444.69;;;9.73;100.00
16580;BME280;8402;51.466;6.806;2022-11-23T01:33:46;99448.19;;;9.73;100.00
16580;BME280;8402;51.466;6.806;2022-11-23T01:36:18;99446.72;;;9.76;100.00
16580;BME280;8402;51.466;6.806;2022-11-23T01:38:47;99442.88;;;9.77;100.00
16580;BME280;8402;51.466;6.806;2022-11-23T01:41:17;99444.44;;;9.78;100.00
16580;BME280;8402;51.466;6.806;2022-11-23T01:43:46;99432.03;;;9.77;100.00
16580;BME280;8402;51.466;6.806;2022-11-23T01:46:15;99438.59;;;9.76;100.00
16580;BME280;8402;51.466;6.806;2022-11-23T01:48:46;99438.34;;;9.81;100.00
16580;BME280;8402;51.466;6.806;2022-11-23T01:51:19;99433.59;;;9.78;100.00
16580;BME280;8402;51.466;6.806;2022-11-23T01:53:53;99433.16;;;9.76;100.00
16580;BME280;8402;51.466;6.806;2022-11-23T01:56:27;99429.44;;;9.80;100.00
16580;BME280;8402;51.466;6.806;2022-11-23T01:58:58;99432.59;;;9.82;100.00
16580;BME280;8402;51.466;6.806;2022-11-23T02:01:29;99441.16;;;9.84;100.00
16580;BME280;8402;51.466;6.806;2022-11-23T02:03:59;99441.94;;;9.85;100.00
16580;BME280;8402;51.466;6.806;2022-11-23T02:06:29;99444.00;;;9.88;100.00
16580;BME280;8402;51.466;6.806;2022-11-23T02:08:59;99457.53;;;9.88;100.00
16580;BME280;8402;51.466;6.806;2022-11-23T02:11:27;99461.38;;;9.87;100.00
16580;BME280;8402;51.466;6.806;2022-11-23T02:13:55;99459.13;;;9.89;100.00
16580;BME280;8402;51.466;6.806;2022-11-23T02:16:23;99455.19;;;9.86;100.00
16580;BME280;8402;51.466;6.806;2022-11-23T02:18:52;99465.66;;;9.88;100.00
16580;BME280;8402;51.466;6.806;2022-11-23T02:21:20;99459.13;;;9.89;100.00
16580;BME280;8402;51.466;6.806;2022-11-23T02:23:57;99470.31;;;9.87;100.00
16580;BME280;8402;51.466;6.806;2022-11-23T02:26:33;99467.13;;;9.85;100.00
16580;BME280;8402;51.466;6.806;2022-11-23T02:29:07;99474.94;;;9.87;100.00
16580;BME280;8402;51.466;6.806;2022-11-23T02:31:40;99471.09;;;9.88;100.00
16580;BME280;8402;51.466;6.806;2022-11-23T02:34:08;99468.03;;;9.89;100.00
16580;BME280;8402;51.466;6.806;2022-11-23T02:36:38;99468.72;;;9.86;100.00
16580;BME280;8402;51.466;6.806;2022-11-23T02:39:10;99472.66;;;9.89;100.00
16580;BME280;8402;51.466;6.806;2022-11-23T02:41:42;99471.31;;;9.95;100.00
16580;BME280;8402;51.466;6.806;2022-11-23T02:44:30;99478.31;;;9.96;100.00
16580;BME280;8402;51.466;6.806;2022-11-23T02:47:02;99474.25;;;10.02;100.00
16580;BME280;8402;51.466;6.806;2022-11-23T02:49:30;99469.94;;;10.01;99.93
16580;BME280;8402;51.466;6.806;2022-11-23T02:52:00;99468.38;;;10.00;99.76
16580;BME280;8402;51.466;6.806;2022-11-23T02:54:29;99465.66;;;10.00;99.96
16580;BME280;8402;51.466;6.806;2022-11-23T02:57:01;99466.78;;;9.99;100.00
16580;BME280;8402;51.466;6.806;2022-11-23T02:59:30;99468.69;;;9.99;99.52
16580;BME280;8402;51.466;6.806;2022-11-23T03:02:01;99469.81;;;9.98;100.00
16580;BME280;8402;51.466;6.806;2022-11-23T03:04:30;99476.50;;;10.00;99.91
16580;BME280;8402;51.466;6.806;2022-11-23T03:06:58;99472.97;;;10.00;99.42
16580;BME280;8402;51.466;6.806;2022-11-23T03:09:26;99473.81;;;10.00;99.11
16580;BME280;8402;51.466;6.806;2022-11-23T03:11:55;99479.22;;;10.00;99.49
16580;BME280;8402;51.466;6.806;2022-11-23T03:14:24;99481.59;;;10.02;99.24
16580;BME280;8402;51.466;6.806;2022-11-23T03:16:52;99490.06;;;10.00;99.59
16580;BME280;8402;51.466;6.806;2022-11-23T03:19:20;99484.63;;;10.00;99.79
16580;BME280;8402;51.466;6.806;2022-11-23T03:21:48;99487.78;;;10.02;99.21
16580;BME280;8402;51.466;6.806;2022-11-23T03:24:16;99484.63;;;10.00;99.67
16580;BME280;8402;51.466;6.806;2022-11-23T03:26:44;99487.09;;;10.05;99.67
16580;BME280;8402;51.466;6.806;2022-11-23T03:29:12;99491.72;;;10.05;99.21
16580;BME280;8402;51.466;6.806;2022-11-23T03:31:41;99493.44;;;10.09;99.28
16580;BME280;8402;51.466;6.806;2022-11-23T03:34:10;99498.84;;;10.09;99.38
16580;BME280;8402;51.466;6.806;2022-11-23T03:36:38;99495.69;;;10.07;99.24
16580;BME280;8402;51.466;6.806;2022-11-23T03:39:07;99496.34;;;10.04;99.21
16580;BME280;8402;51.466;6.806;2022-11-23T03:41:36;99487.78;;;10.02;100.00
16580;BME280;8402;51.466;6.806;2022-11-23T03:44:06;99501.78;;;10.04;100.00
16580;BME280;8402;51.466;6.806;2022-11-23T03:46:34;99492.78;;;10.00;100.00
16580;BME280;8402;51.466;6.806;2022-11-23T03:49:04;99495.00;;;9.98;100.00
16580;BME280;8402;51.466;6.806;2022-11-23T03:51:33;99490.06;;;10.00;100.00
16580;BME280;8402;51.466;6.806;2022-11-23T03:54:01;99492.78;;;10.00;100.00
16580;BME280;8402;51.466;6.806;2022-11-23T03:56:34;99489.16;;;9.96;100.00
16580;BME280;8402;51.466;6.806;2022-11-23T03:59:02;99493.66;;;9.92;100.00
16580;BME280;8402;51.466;6.806;2022-11-23T04:01:30;99497.63;;;9.95;100.00
16580;BME280;8402;51.466;6.806;2022-11-23T04:03:58;99487.13;;;9.93;100.00
16580;BME280;8402;51.466;6.806;2022-11-23T04:06:27;99486.66;;;9.91;100.00
16580;BME280;8402;51.466;6.806;2022-11-23T04:08:56;99490.06;;;9.88;100.00
16580;BME280;8402;51.466;6.806;2022-11-23T04:11:28;99487.44;;;9.91;100.00
16580;BME280;8402;51.466;6.806;2022-11-23T04:13:57;99497.72;;;9.98;100.00
16580;BME280;8402;51.466;6.806;2022-11-23T04:16:25;99493.22;;;10.02;100.00
16580;BME280;8402;51.466;6.806;2022-11-23T04:18:53;99490.94;;;10.04;100.00
16580;BME280;8402;51.466;6.806;2022-11-23T04:21:21;99501.78;;;10.04;100.00
16580;BME280;8402;51.466;6.806;2022-11-23T04:23:51;99493.22;;;10.02;100.00
16580;BME280;8402;51.466;6.806;2022-11-23T04:26:19;99500.91;;;10.00;100.00
16580;BME280;8402;51.466;6.806;2022-11-23T04:28:48;99497.72;;;9.98;100.00
16580;BME280;8402;51.466;6.806;2022-11-23T04:31:16;99496.13;;;9.97;100.00
16580;BME280;8402;51.466;6.806;2022-11-23T04:33:44;99500.44;;;9.98;100.00
16580;BME280;8402;51.466;6.806;2022-11-23T04:36:12;99502.00;;;9.99;100.00
16580;BME280;8402;51.466;6.806;2022-11-23T04:38:40;99499.28;;;9.99;100.00
16580;BME280;8402;51.466;6.806;2022-11-23T04:41:09;99494.56;;;9.96;100.00
16580;BME280;8402;51.466;6.806;2022-11-23T04:43:37;99498.06;;;9.97;100.00
16580;BME280;8402;51.466;6.806;2022-11-23T04:46:05;99507.66;;;9.94;100.00
16580;BME280;8402;51.466;6.806;2022-11-23T04:48:33;99507.66;;;9.94;100.00
16580;BME280;8402;51.466;6.806;2022-11-23T04:51:01;99508.47;;;9.95;100.00
16580;BME280;8402;51.466;6.806;2022-11-23T04:53:30;99510.81;;;9.96;100.00
16580;BME280;8402;51.466;6.806;2022-11-23T04:55:58;99507.66;;;9.94;100.00
16580;BME280;8402;51.466;6.806;2022-11-23T04:58:27;99510.13;;;9.99;100.00
16580;BME280;8402;51.466;6.806;2022-11-23T05:01:00;99509.81;;;10.01;100.00
16580;BME280;8402;51.466;6.806;2022-11-23T05:03:28;99504.06;;;10.02;100.00
16580;BME280;8402;51.466;6.806;2022-11-23T05:05:58;99503.25;;;10.02;100.00
16580;BME280;8402;51.466;6.806;2022-11-23T05:08:27;99494.00;;;10.03;100.00
16580;BME280;8402;51.466;6.806;2022-11-23T05:10:55;99502.34;;;9.98;100.00
16580;BME280;8402;51.466;6.806;2022-11-23T05:13:24;99509.03;;;10.00;100.00
16580;BME280;8402;51.466;6.806;2022-11-23T05:15:53;99504.28;;;9.97;100.00
16580;BME280;8402;51.466;6.806;2022-11-23T05:18:21;99509.25;;;9.95;100.00
16580;BME280;8402;51.466;6.806;2022-11-23T05:20:50;99500.69;;;9.93;100.00
16580;BME280;8402;51.466;6.806;2022-11-23T05:23:18;99501.34;;;9.90;100.00
16580;BME280;8402;51.466;6.806;2022-11-23T05:25:46;99504.03;;;9.90;100.00
16580;BME280;8402;51.466;6.806;2022-11-23T05:28:18;99506.75;;;9.90;100.00
16580;BME280;8402;51.466;6.806;2022-11-23T05:31:08;99506.75;;;9.90;100.00
16580;BME280;8402;51.466;6.806;2022-11-23T05:33:38;99501.69;;;9.88;100.00
16580;BME280;8402;51.466;6.806;2022-11-23T05:36:08;99502.91;;;9.91;100.00
16580;BME280;8402;51.466;6.806;2022-11-23T05:38:39;99503.69;;;9.91;100.00
16580;BME280;8402;51.466;6.806;2022-11-23T05:41:07;99508.47;;;9.95;100.00
16580;BME280;8402;51.466;6.806;2022-11-23T05:43:38;99508.56;;;9.98;100.00
16580;BME280;8402;51.466;6.806;2022-11-23T05:46:07;99509.47;;;10.02;100.00
16580;BME280;8402;51.466;6.806;2022-11-23T05:48:37;99502.47;;;10.01;100.00
16580;BME280;8402;51.466;6.806;2022-11-23T05:51:05;99514.09;;;10.02;100.00
16580;BME280;8402;51.466;6.806;2022-11-23T05:53:33;99512.84;;;9.99;100.00
16580;BME280;8402;51.466;6.806;2022-11-23T05:56:01;99512.84;;;9.99;100.00
16580;BME280;8402;51.466;6.806;2022-11-23T05:58:29;99517.81;;;9.97;100.00
16580;BME280;8402;51.466;6.806;2022-11-23T06:00:58;99514.66;;;9.95;100.00
16580;BME280;8402;51.466;6.806;2022-11-23T06:03:27;99517.59;;;9.90;100.00
16580;BME280;8402;51.466;6.806;2022-11-23T06:05:55;99518.28;;;9.87;100.00
16580;BME280;8402;51.466;6.806;2022-11-23T06:08:23;99523.69;;;9.87;100.00
16580;BME280;8402;51.466;6.806;2022-11-23T06:10:51;99521.00;;;9.87;100.00
16580;BME280;8402;51.466;6.806;2022-11-23T06:13:19;99518.28;;;9.87;100.00
16580;BME280;8402;51.466;6.806;2022-11-23T06:15:47;99524.34;;;9.84;100.00
16580;BME280;8402;51.466;6.806;2022-11-23T06:18:15;99527.75;;;9.81;100.00
16580;BME280;8402;51.466;6.806;2022-11-23T06:20:44;99526.19;;;9.80;100.00
16580;BME280;8402;51.466;6.806;2022-11-23T06:23:12;99524.25;;;9.80;100.00
16580;BME280;8402;51.466;6.806;2022-11-23T06:25:41;99522.78;;;9.83;100.00
16580;BME280;8402;51.466;6.806;2022-11-23T06:28:09;99524.34;;;9.84;100.00
16580;BME280;8402;51.466;6.806;2022-11-23T06:30:36;99528.19;;;9.83;100.00
16580;BME280;8402;51.466;6.806;2022-11-23T06:33:05;99524.34;;;9.84;100.00
16580;BME280;8402;51.466;6.806;2022-11-23T06:35:32;99524.34;;;9.84;100.00
16580;BME280;8402;51.466;6.806;2022-11-23T06:38:02;99517.38;;;9.83;100.00
16580;BME280;8402;51.466;6.806;2022-11-23T06:40:30;99525.16;;;9.84;100.00
16580;BME280;8402;51.466;6.806;2022-11-23T06:42:58;99520.06;;;9.83;100.00
16580;BME280;8402;51.466;6.806;2022-11-23T06:45:26;99519.63;;;9.81;100.00
16580;BME280;8402;51.466;6.806;2022-11-23T06:47:55;99521.22;;;9.82;100.00
16580;BME280;8402;51.466;6.806;2022-11-23T06:50:23;99528.88;;;9.80;100.00
16580;BME280;8402;51.466;6.806;2022-11-23T06:52:54;99534.63;;;9.78;100.00
16580;BME280;8402;51.466;6.806;2022-11-23T06:55:24;99536.53;;;9.78;100.00
16580;BME280;8402;51.466;6.806;2022-11-23T06:57:52;99539.59;;;9.76;100.00
16580;BME280;8402;51.466;6.806;2022-11-23T07:00:20;99541.72;;;9.71;100.00
16580;BME280;8402;51.466;6.806;2022-11-23T07:02:52;99539.50;;;9.73;100.00
16580;BME280;8402;51.466;6.806;2022-11-23T07:05:21;99545.56;;;9.70;100.00
16580;BME280;8402;51.466;6.806;2022-11-23T07:07:49;99547.16;;;9.71;100.00
16580;BME280;8402;51.466;6.806;2022-11-23T07:10:18;99556.88;;;9.72;100.00
16580;BME280;8402;51.466;6.806;2022-11-23T07:12:48;99553.69;;;9.70;100.00
16580;BME280;8402;51.466;6.806;2022-11-23T07:15:16;99547.63;;;9.73;100.00
16580;BME280;8402;51.466;6.806;2022-11-23T07:17:44;99544.22;;;9.76;100.00
16580;BME280;8402;51.466;6.806;2022-11-23T07:20:12;99548.50;;;9.77;100.00
16580;BME280;8402;51.466;6.806;2022-11-23T07:22:40;99543.44;;;9.75;100.00
16580;BME280;8402;51.466;6.806;2022-11-23T07:25:08;99542.66;;;9.75;100.00
16580;BME280;8402;51.466;6.806;2022-11-23T07:27:37;99549.31;;;9.77;100.00
16580;BME280;8402;51.466;6.806;2022-11-23T07:30:08;99548.06;;;9.75;100.00
16580;BME280;8402;51.466;6.806;2022-11-23T07:32:36;99551.91;;;9.74;100.00
16580;BME280;8402;51.466;6.806;2022-11-23T07:35:05;99557.31;;;9.74;100.00
16580;BME280;8402;51.466;6.806;2022-11-23T07:37:33;99555.75;;;9.73;100.00
16580;BME280;8402;51.466;6.806;2022-11-23T07:40:01;99555.75;;;9.73;100.00
16580;BME280;8402;51.466;6.806;2022-11-23T07:42:29;99574.22;;;9.71;100.00
16580;BME280;8402;51.466;6.806;2022-11-23T07:45:08;99568.81;;;9.71;100.00
16580;BME280;8402;51.466;6.806;2022-11-23T07:47:36;99562.59;;;9.70;100.00
16580;BME280;8402;51.466;6.806;2022-11-23T07:50:05;99572.00;;;9.73;100.00
16580;BME280;8402;51.466;6.806;2022-11-23T07:52:34;99577.41;;;9.73;100.00
16580;BME280;8402;51.466;6.806;2022-11-23T07:55:03;99579.09;;;9.77;100.00
16580;BME280;8402;51.466;6.806;2022-11-23T07:57:32;99575.38;;;9.82;100.00
16580;BME280;8402;51.466;6.806;2022-11-23T07:59:59;99573.13;;;9.84;100.00
16580;BME280;8402;51.466;6.806;2022-11-23T08:02:29;99570.41;;;9.84;100.00
16580;BME280;8402;51.466;6.806;2022-11-23T08:04:57;99572.47;;;9.87;100.00
16580;BME280;8402;51.466;6.806;2022-11-23T08:07:25;99570.56;;;9.87;100.00
16580;BME280;8402;51.466;6.806;2022-11-23T08:09:53;99570.88;;;9.86;100.00
16580;BME280;8402;51.466;6.806;2022-11-23T08:12:21;99583.63;;;9.85;100.00
16580;BME280;8402;51.466;6.806;2022-11-23T08:14:49;99584.66;;;9.81;99.69
16580;BME280;8402;51.466;6.806;2022-11-23T08:17:17;99582.38;;;9.83;100.00
16580;BME280;8402;51.466;6.806;2022-11-23T08:19:46;99581.72;;;9.86;99.54
16580;BME280;8402;51.466;6.806;2022-11-23T08:22:14;99584.75;;;9.84;99.52
16580;BME280;8402;51.466;6.806;2022-11-23T08:24:42;99594.59;;;9.89;99.32
16580;BME280;8402;51.466;6.806;2022-11-23T08:27:10;99586.91;;;9.91;99.85
16580;BME280;8402;51.466;6.806;2022-11-23T08:29:39;99591.97;;;9.92;99.83
16580;BME280;8402;51.466;6.806;2022-11-23T08:32:07;99592.13;;;9.96;99.11
16580;BME280;8402;51.466;6.806;2022-11-23T08:34:35;99597.97;;;9.98;98.74
16580;BME280;8402;51.466;6.806;2022-11-23T08:37:04;99600.81;;;10.02;98.64
16580;BME280;8402;51.466;6.806;2022-11-23T08:39:32;99603.19;;;10.03;99.21
16580;BME280;8402;51.466;6.806;2022-11-23T08:42:00;99610.88;;;10.01;97.27
16580;BME280;8402;51.466;6.806;2022-11-23T08:44:28;99604.22;;;10.11;97.80
16580;BME280;8402;51.466;6.806;2022-11-23T08:46:56;99611.34;;;10.15;97.15
16580;BME280;8402;51.466;6.806;2022-11-23T08:49:25;99601.28;;;10.16;95.43
16580;BME280;8402;51.466;6.806;2022-11-23T08:51:53;99592.91;;;10.21;95.56
16580;BME280;8402;51.466;6.806;2022-11-23T08:54:22;99601.03;;;10.21;95.45
16580;BME280;8402;51.466;6.806;2022-11-23T08:56:50;99598.47;;;10.25;95.93
16580;BME280;8402;51.466;6.806;2022-11-23T08:59:18;99594.63;;;10.26;95.66
16580;BME280;8402;51.466;6.806;2022-11-23T09:01:47;99595.78;;;10.25;94.88
16580;BME280;8402;51.466;6.806;2022-11-23T09:04:15;99603.91;;;10.25;94.17
16580;BME280;8402;51.466;6.806;2022-11-23T09:06:46;99600.50;;;10.28;93.98
16580;BME280;8402;51.466;6.806;2022-11-23T09:09:14;99590.44;;;10.28;93.86
16580;BME280;8402;51.466;6.806;2022-11-23T09:11:44;99597.13;;;10.31;93.61
16580;BME280;8402;51.466;6.806;2022-11-23T09:14:12;99603.34;;;10.31;91.70
16580;BME280;8402;51.466;6.806;2022-11-23T09:16:40;99609.56;;;10.32;90.67
16580;BME280;8402;51.466;6.806;2022-11-23T09:19:11;99614.28;;;10.35;91.10
16580;BME280;8402;51.466;6.806;2022-11-23T09:21:39;99612.03;;;10.37;90.21
16580;BME280;8402;51.466;6.806;2022-11-23T09:24:09;99607.06;;;10.39;91.54
16580;BME280;8402;51.466;6.806;2022-11-23T09:26:37;99613.06;;;10.44;92.04
16580;BME280;8402;51.466;6.806;2022-11-23T09:29:07;99611.22;;;10.48;90.30
16580;BME280;8402;51.466;6.806;2022-11-23T09:31:35;99616.00;;;10.52;90.31
16580;BME280;8402;51.466;6.806;2022-11-23T09:34:03;99621.41;;;10.52;89.80
16580;BME280;8402;51.466;6.806;2022-11-23T09:36:31;99629.66;;;10.55;90.65
16580;BME280;8402;51.466;6.806;2022-11-23T09:38:59;99620.38;;;10.56;89.94
16580;BME280;8402;51.466;6.806;2022-11-23T09:44:31;99625.78;;;10.56;89.90
16580;BME280;8402;51.466;6.806;2022-11-23T09:47:14;99617.34;;;10.58;89.67
16580;BME280;8402;51.466;6.806;2022-11-23T09:49:54;99625.91;;;10.60;89.56
16580;BME280;8402;51.466;6.806;2022-11-23T09:52:25;99622.16;;;10.64;89.33
16580;BME280;8402;51.466;6.806;2022-11-23T09:54:55;99617.56;;;10.65;89.76
16580;BME280;8402;51.466;6.806;2022-11-23T09:57:27;99623.78;;;10.65;89.45
16580;BME280;8402;51.466;6.806;2022-11-23T10:00:02;99630.06;;;10.69;89.77
16580;BME280;8402;51.466;6.806;2022-11-23T10:02:34;99630.06;;;10.69;87.83
16580;BME280;8402;51.466;6.806;2022-11-23T10:05:04;99621.59;;;10.71;87.87
16580;BME280;8402;51.466;6.806;2022-11-23T10:07:42;99623.06;;;10.68;87.57
16580;BME280;8402;51.466;6.806;2022-11-23T10:10:23;99601.81;;;10.70;86.72
16580;BME280;8402;51.466;6.806;2022-11-23T10:13:01;99618.56;;;10.72;86.11
16580;BME280;8402;51.466;6.806;2022-11-23T10:15:38;99626.00;;;10.75;85.24
16580;BME280;8402;51.466;6.806;2022-11-23T10:18:22;99619.34;;;10.73;83.19
16580;BME280;8402;51.466;6.806;2022-11-23T10:20:58;99618.66;;;10.76;85.00
16580;BME280;8402;51.466;6.806;2022-11-23T10:23:45;99617.06;;;10.75;85.33
16580;BME280;8402;51.466;6.806;2022-11-23T10:26:18;99625.00;;;10.80;85.65
16580;BME280;8402;51.466;6.806;2022-11-23T10:28:48;99620.34;;;10.81;82.49
16580;BME280;8402;51.466;6.806;2022-11-23T10:31:20;99607.00;;;10.75;82.45
16580;BME280;8402;51.466;6.806;2022-11-23T10:33:54;99620.56;;;10.75;83.74
16580;BME280;8402;51.466;6.806;2022-11-23T10:36:22;99617.97;;;10.79;84.03
16580;BME280;8402;51.466;6.806;2022-11-23T10:38:52;99615.72;;;10.81;84.62
16580;BME280;8402;51.466;6.806;2022-11-23T10:41:22;99609.59;;;10.84;84.84
16580;BME280;8402;51.466;6.806;2022-11-23T10:43:53;99608.44;;;10.85;84.40
16580;BME280;8402;51.466;6.806;2022-11-23T10:46:38;99598.72;;;10.84;83.05
16580;BME280;8402;51.466;6.806;2022-11-23T10:49:15;99588.66;;;10.85;83.40
16580;BME280;8402;51.466;6.806;2022-11-23T10:51:50;99586.41;;;10.87;84.01
16580;BME280;8402;51.466;6.806;2022-11-23T10:54:21;99578.72;;;10.89;83.25
16580;BME280;8402;51.466;6.806;2022-11-23T10:56:51;99576.44;;;10.91;82.21
16580;BME280;8402;51.466;6.806;2022-11-23T10:59:31;99583.44;;;10.92;83.30
16580;BME280;8402;51.466;6.806;2022-11-23T11:02:13;99566.72;;;10.90;81.94
16580;BME280;8402;51.466;6.806;2022-11-23T11:04:42;99578.81;;;10.92;82.12
16580;BME280;8402;51.466;6.806;2022-11-23T11:07:22;99566.28;;;10.88;81.77
16580;BME280;8402;51.466;6.806;2022-11-23T11:09:54;99567.50;;;10.90;82.28
16580;BME280;8402;51.466;6.806;2022-11-23T11:12:23;99552.00;;;10.91;81.26
16580;BME280;8402;51.466;6.806;2022-11-23T11:14:59;99564.00;;;10.90;82.07
16580;BME280;8402;51.466;6.806;2022-11-23T11:17:39;99558.16;;;10.88;82.67
16580;BME280;8402;51.466;6.806;2022-11-23T11:20:29;99551.38;;;10.82;82.66
16580;BME280;8402;51.466;6.806;2022-11-23T11:22:59;99546.81;;;10.86;82.86
16580;BME280;8402;51.466;6.806;2022-11-23T11:25:30;99543.00;;;10.87;82.47
16580;BME280;8402;51.466;6.806;2022-11-23T11:27:58;99540.59;;;10.85;81.50
16580;BME280;8402;51.466;6.806;2022-11-23T11:30:31;99533.72;;;10.88;81.92
16580;BME280;8402;51.466;6.806;2022-11-23T11:33:12;99529.31;;;10.83;81.18
16580;BME280;8402;51.466;6.806;2022-11-23T11:35:43;99533.25;;;10.86;81.32
16580;BME280;8402;51.466;6.806;2022-11-23T11:38:17;99533.25;;;10.86;81.57
16580;BME280;8402;51.466;6.806;2022-11-23T11:40:47;99526.00;;;10.90;81.25
16580;BME280;8402;51.466;6.806;2022-11-23T11:43:21;99526.44;;;10.92;81.15
16580;BME280;8402;51.466;6.806;2022-11-23T11:46:08;99526.00;;;10.90;79.52
16580;BME280;8402;51.466;6.806;2022-11-23T11:49:04;99530.31;;;10.91;80.44
16580;BME280;8402;51.466;6.806;2022-11-23T11:51:35;99525.31;;;10.93;80.90
16580;BME280;8402;51.466;6.806;2022-11-23T11:54:12;99525.59;;;10.88;81.00
16580;BME280;8402;51.466;6.806;2022-11-23T11:56:46;99520.94;;;10.88;81.04
16580;BME280;8402;51.466;6.806;2022-11-23T11:59:21;99526.72;;;10.87;78.57
16580;BME280;8402;51.466;6.806;2022-11-23T12:01:56;99519.50;;;10.79;79.32
16580;BME280;8402;51.466;6.806;2022-11-23T12:04:34;99527.19;;;10.77;79.02
16580;BME280;8402;51.466;6.806;2022-11-23T12:07:08;99527.19;;;10.77;79.75
16580;BME280;8402;51.466;6.806;2022-11-23T12:09:41;99524.91;;;10.79;79.92
16580;BME280;8402;51.466;6.806;2022-11-23T12:12:14;99513.81;;;10.84;80.38
16580;BME280;8402;51.466;6.806;2022-11-23T12:14:44;99508.84;;;10.86;78.33
16580;BME280;8402;51.466;6.806;2022-11-23T12:17:30;99518.22;;;10.88;77.33
16580;BME280;8402;51.466;6.806;2022-11-23T12:20:07;99513.78;;;10.96;77.88
16580;BME280;8402;51.466;6.806;2022-11-23T12:22:46;99517.03;;;11.01;78.53
16580;BME280;8402;51.466;6.806;2022-11-23T12:25:25;99519.16;;;11.08;78.92
16580;BME280;8402;51.466;6.806;2022-11-23T12:28:09;99516.53;;;11.12;78.47
16580;BME280;8402;51.466;6.806;2022-11-23T12:30:50;99518.91;;;11.13;78.20
16580;BME280;8402;51.466;6.806;2022-11-23T12:33:41;99518.47;;;11.11;77.41
16580;BME280;8402;51.466;6.806;2022-11-23T12:36:25;99525.72;;;11.07;77.91
16580;BME280;8402;51.466;6.806;2022-11-23T12:39:04;99521.41;;;11.06;78.78
16580;BME280;8402;51.466;6.806;2022-11-23T12:41:38;99516.88;;;11.10;78.87
16580;BME280;8402;51.466;6.806;2022-11-23T12:44:43;99509.41;;;11.07;78.20
16580;BME280;8402;51.466;6.806;2022-11-23T12:47:23;99504.88;;;11.11;78.84
16580;BME280;8402;51.466;6.806;2022-11-23T12:49:55;99490.16;;;11.12;78.90
16580;BME280;8402;51.466;6.806;2022-11-23T12:52:41;99490.16;;;11.12;78.08
16580;BME280;8402;51.466;6.806;2022-11-23T12:55:18;99493.00;;;11.16;78.70
16580;BME280;8402;51.466;6.806;2022-11-23T12:57:57;99494.91;;;11.15;78.26
16580;BME280;8402;51.466;6.806;2022-11-23T13:00:31;99487.66;;;11.19;79.05
16580;BME280;8402;51.466;6.806;2022-11-23T13:03:25;99481.78;;;11.17;77.60
16580;BME280;8402;51.466;6.806;2022-11-23T13:06:25;99487.66;;;11.19;77.70
16580;BME280;8402;51.466;6.806;2022-11-23T13:09:14;99478.72;;;11.19;77.98
16580;BME280;8402;51.466;6.806;2022-11-23T13:11:56;99460.25;;;11.24;78.01
16580;BME280;8402;51.466;6.806;2022-11-23T13:14:30;99466.81;;;11.23;77.40
16580;BME280;8402;51.466;6.806;2022-11-23T13:17:10;99456.31;;;11.22;77.80
16580;BME280;8402;51.466;6.806;2022-11-23T13:20:04;99467.06;;;11.18;77.37
16580;BME280;8402;51.466;6.806;2022-11-23T13:22:34;99462.53;;;11.22;77.95
16580;BME280;8402;51.466;6.806;2022-11-23T13:25:20;99464.69;;;11.17;77.09
16580;BME280;8402;51.466;6.806;2022-11-23T13:28:00;99448.31;;;11.13;76.66
16580;BME280;8402;51.466;6.806;2022-11-23T13:30:31;99471.59;;;11.14;77.52
16580;BME280;8402;51.466;6.806;2022-11-23T13:33:27;99457.16;;;11.10;77.58
16580;BME280;8402;51.466;6.806;2022-11-23T13:36:04;99456.44;;;11.13;78.21